createdAt,value
2023-08-15T00:03:38.143Z,100.00
2023-08-15T00:07:39.688Z,100.00
2023-08-15T00:11:41.202Z,100.00
2023-08-15T00:15:43.004Z,100.00
2023-08-15T00:19:45.884Z,100.00
2023-08-15T00:23:47.473Z,100.00
2023-08-15T00:27:49.008Z,100.00
2023-08-15T00:31:50.642Z,100.00
2023-08-15T00:35:53.589Z,100.00
2023-08-15T00:39:55.288Z,100.00
2023-08-15T00:43:56.956Z,100.00
2023-08-15T00:47:58.722Z,100.00
2023-08-15T00:52:02.309Z,100.00
2023-08-15T00:56:04.425Z,100.00
2023-08-15T01:00:07.462Z,100.00
2023-08-15T01:04:09.497Z,100.00
2023-08-15T01:08:12.376Z,100.00
2023-08-15T01:12:25.454Z,100.00
2023-08-15T01:16:32.584Z,100.00
2023-08-15T01:20:36.788Z,100.00
2023-08-15T01:24:39.897Z,100.00
2023-08-15T01:28:41.587Z,100.00
2023-08-15T01:32:49.776Z,100.00
2023-08-15T01:36:55.097Z,100.00
2023-08-15T01:41:02.234Z,100.00
2023-08-15T01:45:04.582Z,100.00
2023-08-15T01:49:06.195Z,100.00
2023-08-15T01:53:07.790Z,100.00
2023-08-15T01:57:10.699Z,100.00
2023-08-15T02:01:12.270Z,100.00
2023-08-15T02:05:13.942Z,100.00
2023-08-15T02:09:15.523Z,100.00
2023-08-15T02:13:18.910Z,100.00
2023-08-15T02:17:20.599Z,100.00
2023-08-15T02:21:22.400Z,100.00
2023-08-15T02:25:23.991Z,100.00
2023-08-15T02:29:26.888Z,100.00
2023-08-15T02:33:28.442Z,100.00
2023-08-15T02:37:29.978Z,100.00
2023-08-15T02:41:31.527Z,100.00
2023-08-15T02:45:34.427Z,100.00
2023-08-15T02:49:35.970Z,100.00
2023-08-15T02:53:37.529Z,100.00
2023-08-15T02:57:39.090Z,100.00
2023-08-15T03:01:41.978Z,100.00
2023-08-15T03:05:43.528Z,100.00
2023-08-15T03:09:45.088Z,100.00
2023-08-15T03:13:46.625Z,100.00
2023-08-15T03:17:49.562Z,100.00
2023-08-15T03:21:51.243Z,100.00
2023-08-15T03:25:56.868Z,100.00
2023-08-15T03:29:58.484Z,100.00
2023-08-15T03:34:01.406Z,100.00
2023-08-15T03:38:03.014Z,100.00
2023-08-15T03:42:05.264Z,100.00
2023-08-15T03:46:07.220Z,100.00
2023-08-15T03:50:10.372Z,100.00
2023-08-15T03:54:11.932Z,100.00
2023-08-15T03:58:13.478Z,100.00
2023-08-15T04:02:15.043Z,100.00
2023-08-15T04:06:17.924Z,100.00
2023-08-15T04:10:19.555Z,100.00
2023-08-15T04:14:21.125Z,100.00
2023-08-15T04:18:22.664Z,100.00
2023-08-15T04:22:25.570Z,100.00
2023-08-15T04:26:27.132Z,100.00
2023-08-15T04:30:29.570Z,100.00
2023-08-15T04:34:31.264Z,100.00
2023-08-15T04:38:34.176Z,100.00
2023-08-15T04:42:35.714Z,100.00
2023-08-15T04:46:37.386Z,100.00
2023-08-15T04:50:38.946Z,100.00
2023-08-15T04:54:41.837Z,100.00
2023-08-15T04:58:43.377Z,100.00
2023-08-15T05:02:45.007Z,100.00
2023-08-15T05:06:46.566Z,100.00
2023-08-15T05:10:49.536Z,100.00
2023-08-15T05:14:51.117Z,100.00
2023-08-15T05:18:52.660Z,100.00
2023-08-15T05:22:54.428Z,100.00
2023-08-15T05:26:57.348Z,100.00
2023-08-15T05:30:59.020Z,100.00
2023-08-15T05:35:00.583Z,100.00
2023-08-15T05:39:02.121Z,100.00
2023-08-15T05:43:05.084Z,100.00
2023-08-15T05:47:06.703Z,100.00
2023-08-15T05:51:08.317Z,100.00
2023-08-15T05:55:09.852Z,98.84
2023-08-15T05:59:12.748Z,99.56
2023-08-15T06:03:14.397Z,96.71
2023-08-15T06:07:16.026Z,95.33
2023-08-15T06:11:17.568Z,93.27
2023-08-15T06:15:20.481Z,90.37
2023-08-15T06:19:22.020Z,91.90
2023-08-15T06:23:23.644Z,91.30
2023-08-15T06:27:25.205Z,88.83
2023-08-15T06:31:28.539Z,85.03
2023-08-15T06:35:30.125Z,82.52
2023-08-15T06:39:31.674Z,82.04
2023-08-15T06:43:33.342Z,79.34
2023-08-15T06:47:36.280Z,80.49
2023-08-15T06:51:37.863Z,76.88
2023-08-15T06:55:39.409Z,76.91
2023-08-15T06:59:40.978Z,75.40
2023-08-15T07:03:44.067Z,74.58
2023-08-15T07:07:45.686Z,72.53
2023-08-15T07:11:47.392Z,75.00
2023-08-15T07:15:54.130Z,75.86
2023-08-15T07:19:57.136Z,72.19
2023-08-15T07:23:58.731Z,68.98
2023-08-15T07:28:00.303Z,68.64
2023-08-15T07:32:06.695Z,67.97
2023-08-15T07:36:10.114Z,67.23
2023-08-15T07:40:20.000Z,68.13
2023-08-15T07:44:21.541Z,68.13
2023-08-15T07:52:26.650Z,66.48
2023-08-15T07:56:28.523Z,66.24
2023-08-15T08:00:30.912Z,64.22
2023-08-15T08:04:32.486Z,65.60
2023-08-15T08:08:37.944Z,65.55
2023-08-15T08:12:39.778Z,65.29
2023-08-15T08:16:41.399Z,68.17
2023-08-15T08:20:42.957Z,65.52
2023-08-15T08:24:46.028Z,65.10
2023-08-15T08:28:47.594Z,62.00
2023-08-15T08:32:49.753Z,62.28
2023-08-15T08:36:51.361Z,59.35
2023-08-15T08:40:56.174Z,58.79
2023-08-15T08:49:01.792Z,60.60
2023-08-15T08:53:03.601Z,58.68
2023-08-15T08:57:07.476Z,58.66
2023-08-15T09:01:10.828Z,61.42
2023-08-15T09:05:12.843Z,58.48
2023-08-15T09:09:14.478Z,55.77
2023-08-15T09:13:23.605Z,56.44
2023-08-15T09:17:25.321Z,56.23
2023-08-15T09:21:27.855Z,57.08
2023-08-15T09:25:29.698Z,55.17
2023-08-15T09:29:34.724Z,54.63
2023-08-15T09:33:36.632Z,55.61
2023-08-15T09:37:41.734Z,55.18
2023-08-15T09:41:43.669Z,56.04
2023-08-15T09:45:47.574Z,56.24
2023-08-15T09:49:52.098Z,54.62
2023-08-15T09:53:54.659Z,54.00
2023-08-15T09:57:56.275Z,55.54
2023-08-15T10:02:01.553Z,56.26
2023-08-15T10:06:04.501Z,56.32
2023-08-15T10:10:07.326Z,55.19
2023-08-15T10:14:10.533Z,55.99
2023-08-15T10:18:14.258Z,54.05
2023-08-15T10:22:18.872Z,53.47
2023-08-15T10:26:20.844Z,53.13
2023-08-15T10:30:29.582Z,53.70
2023-08-15T10:34:34.819Z,53.94
2023-08-15T10:38:40.621Z,53.72
2023-08-15T10:43:07.987Z,55.20
2023-08-15T10:47:23.907Z,52.02
2023-08-15T10:51:28.393Z,52.62
2023-08-15T10:55:30.932Z,51.57
2023-08-15T10:59:32.833Z,52.37
2023-08-15T11:03:35.539Z,51.38
2023-08-15T11:07:38.638Z,50.38
2023-08-15T11:11:40.584Z,52.80
2023-08-15T11:15:42.709Z,54.18
2023-08-15T11:19:44.808Z,51.32
2023-08-15T11:23:50.226Z,54.19
2023-08-15T11:27:52.224Z,51.73
2023-08-15T11:31:53.947Z,49.85
2023-08-15T11:35:55.868Z,50.68
2023-08-15T11:39:58.823Z,50.61
2023-08-15T11:44:01.903Z,49.56
2023-08-15T11:48:05.330Z,49.66
2023-08-15T11:52:07.005Z,48.55
2023-08-15T11:56:10.006Z,48.29
2023-08-15T12:00:12.601Z,45.89
2023-08-15T12:04:14.595Z,45.35
2023-08-15T12:08:16.974Z,46.88
2023-08-15T12:12:21.641Z,45.70
2023-08-15T12:16:23.562Z,47.44
2023-08-15T12:20:25.104Z,46.14
2023-08-15T12:24:26.658Z,44.95
2023-08-15T12:28:29.657Z,46.39
2023-08-15T12:32:31.574Z,49.71
2023-08-15T12:36:33.141Z,52.28
2023-08-15T12:40:34.765Z,50.36
2023-08-15T12:44:37.664Z,54.10
2023-08-15T12:48:39.360Z,52.47
2023-08-15T12:52:40.918Z,50.57
2023-08-15T12:56:42.450Z,52.32
2023-08-15T13:00:46.112Z,51.91
2023-08-15T13:04:47.693Z,53.17
2023-08-15T13:08:49.254Z,53.13
2023-08-15T13:12:50.805Z,54.59
2023-08-15T13:16:54.746Z,58.88
2023-08-15T13:20:56.570Z,61.51
2023-08-15T13:24:58.142Z,58.23
2023-08-15T13:28:59.710Z,63.36
2023-08-15T13:33:02.659Z,64.14
2023-08-15T13:37:04.361Z,63.57
2023-08-15T13:41:06.174Z,65.10
2023-08-15T13:45:09.458Z,63.13
2023-08-15T13:49:12.864Z,66.40
2023-08-15T13:53:14.410Z,68.10
2023-08-15T13:57:16.002Z,68.94
2023-08-15T14:01:17.790Z,70.57
2023-08-15T14:05:21.014Z,68.01
2023-08-15T14:09:22.600Z,67.14
2023-08-15T14:13:24.308Z,65.85
2023-08-15T14:17:25.855Z,63.39
2023-08-15T14:21:28.751Z,56.77
2023-08-15T14:25:30.457Z,57.03
2023-08-15T14:29:32.021Z,57.06
2023-08-15T14:33:33.708Z,66.77
2023-08-15T14:37:36.646Z,72.69
2023-08-15T14:41:38.193Z,73.46
2023-08-15T14:45:39.757Z,74.12
2023-08-15T14:49:41.316Z,74.33
2023-08-15T14:53:44.292Z,75.40
2023-08-15T14:57:45.866Z,77.12
2023-08-15T15:01:47.502Z,77.53
2023-08-15T15:05:49.108Z,78.02
2023-08-15T15:09:52.205Z,79.55
2023-08-15T15:13:53.778Z,80.88
2023-08-15T15:17:55.363Z,80.91
2023-08-15T15:21:56.987Z,81.06
2023-08-15T15:26:00.233Z,84.49
2023-08-15T15:30:01.927Z,85.62
2023-08-15T15:34:03.784Z,85.01
2023-08-15T15:38:05.372Z,84.72
2023-08-15T15:42:08.507Z,86.31
2023-08-15T15:46:10.189Z,86.91
2023-08-15T15:50:11.928Z,87.84
2023-08-15T15:54:13.486Z,87.54
2023-08-15T15:58:16.365Z,87.87
2023-08-15T16:02:17.938Z,88.32
2023-08-15T16:06:19.496Z,89.22
2023-08-15T16:10:21.121Z,89.29
2023-08-15T16:14:24.057Z,90.78
2023-08-15T16:18:25.877Z,93.38
2023-08-15T16:22:27.897Z,94.93
2023-08-15T16:26:29.444Z,95.16
2023-08-15T16:30:32.416Z,96.66
2023-08-15T16:34:34.398Z,98.22
2023-08-15T16:38:36.040Z,99.75
2023-08-15T16:42:37.604Z,99.00
2023-08-15T16:46:40.544Z,96.82
2023-08-15T16:50:42.248Z,96.37
2023-08-15T16:54:43.884Z,95.39
2023-08-15T16:58:45.466Z,96.44
2023-08-15T17:02:48.601Z,98.00
2023-08-15T17:06:50.420Z,98.57
2023-08-15T17:10:51.992Z,100.00
2023-08-15T17:14:53.509Z,100.00
2023-08-15T17:18:56.400Z,100.00
2023-08-15T17:22:58.056Z,100.00
2023-08-15T17:26:59.937Z,100.00
2023-08-15T17:31:01.506Z,100.00
2023-08-15T17:35:04.990Z,100.00
2023-08-15T17:39:06.535Z,100.00
2023-08-15T17:43:08.190Z,100.00
2023-08-15T17:47:10.049Z,100.00
2023-08-15T17:51:13.065Z,100.00
2023-08-15T17:55:14.801Z,100.00
2023-08-15T17:59:16.372Z,100.00
2023-08-15T18:03:18.025Z,100.00
2023-08-15T18:07:21.015Z,100.00
2023-08-15T18:11:22.644Z,100.00
2023-08-15T18:15:24.340Z,100.00
2023-08-15T18:19:25.892Z,100.00
2023-08-15T18:23:28.954Z,100.00
2023-08-15T18:27:30.528Z,100.00
2023-08-15T18:31:32.239Z,100.00
2023-08-15T18:35:33.854Z,100.00
2023-08-15T18:39:36.843Z,100.00
2023-08-15T18:43:38.376Z,100.00
2023-08-15T18:47:40.046Z,100.00
2023-08-15T18:51:41.673Z,100.00
2023-08-15T18:55:44.953Z,100.00
2023-08-15T18:59:46.563Z,100.00
2023-08-15T19:03:48.198Z,100.00
2023-08-15T19:07:49.828Z,100.00
2023-08-15T19:11:52.751Z,100.00
2023-08-15T19:15:54.300Z,100.00
2023-08-15T19:19:56.527Z,100.00
2023-08-15T19:23:58.097Z,100.00
2023-08-15T19:28:01.143Z,100.00
2023-08-15T19:32:02.739Z,100.00
2023-08-15T19:36:04.771Z,100.00
2023-08-15T19:40:07.910Z,100.00
2023-08-15T19:44:11.175Z,100.00
2023-08-15T19:48:12.863Z,100.00
2023-08-15T19:52:14.461Z,100.00
2023-08-15T19:56:16.289Z,100.00
2023-08-15T20:00:19.348Z,100.00
2023-08-15T20:04:21.022Z,100.00
2023-08-15T20:08:22.715Z,100.00
2023-08-15T20:12:24.622Z,100.00
2023-08-15T20:16:27.809Z,100.00
2023-08-15T20:20:29.416Z,100.00
2023-08-15T20:24:31.008Z,100.00
2023-08-15T20:28:32.613Z,100.00
2023-08-15T20:32:35.577Z,100.00
2023-08-15T20:36:37.999Z,100.00
2023-08-15T20:40:39.592Z,100.00
2023-08-15T20:44:41.189Z,100.00
2023-08-15T20:48:44.074Z,100.00
2023-08-15T20:52:45.618Z,100.00
2023-08-15T20:56:47.251Z,100.00
2023-08-15T21:00:48.866Z,100.00
2023-08-15T21:04:51.822Z,100.00
2023-08-15T21:08:53.366Z,100.00
2023-08-15T21:12:54.908Z,100.00
2023-08-15T21:16:56.541Z,100.00
2023-08-15T21:20:59.440Z,100.00
2023-08-15T21:25:01.016Z,100.00
2023-08-15T21:29:02.753Z,100.00
2023-08-15T21:33:04.734Z,100.00
2023-08-15T21:37:08.183Z,100.00
2023-08-15T21:41:11.953Z,100.00
2023-08-15T21:45:13.532Z,100.00
2023-08-15T21:49:15.099Z,100.00
2023-08-15T21:53:18.090Z,100.00
2023-08-15T21:57:19.849Z,100.00
2023-08-15T22:01:21.596Z,100.00
2023-08-15T22:05:23.640Z,100.00
2023-08-15T22:09:26.550Z,100.00
2023-08-15T22:13:28.134Z,100.00
2023-08-15T22:17:43.150Z,100.00
2023-08-15T22:21:47.487Z,100.00
2023-08-15T22:25:50.629Z,100.00
2023-08-15T22:29:52.199Z,100.00
2023-08-15T22:33:53.808Z,100.00
2023-08-15T22:37:55.406Z,100.00
2023-08-15T22:41:58.298Z,100.00
2023-08-15T22:45:59.885Z,100.00
2023-08-15T22:50:01.434Z,100.00
2023-08-15T22:54:03.114Z,100.00
2023-08-15T22:58:06.169Z,100.00
2023-08-15T23:02:07.710Z,100.00
2023-08-15T23:06:09.285Z,100.00
2023-08-15T23:10:11.083Z,100.00
2023-08-15T23:14:14.035Z,100.00
2023-08-15T23:18:15.589Z,100.00
2023-08-15T23:22:17.172Z,100.00
2023-08-15T23:26:18.686Z,100.00
2023-08-15T23:30:21.656Z,100.00
2023-08-15T23:34:23.227Z,100.00
2023-08-15T23:38:24.794Z,100.00
2023-08-15T23:42:26.337Z,100.00
2023-08-15T23:46:29.319Z,100.00
2023-08-15T23:50:30.945Z,100.00
2023-08-15T23:54:32.559Z,100.00
2023-08-15T23:58:34.122Z,100.00
